createdAt,value
2022-11-18T00:02:44.837Z,93215
2022-11-18T00:06:10.049Z,93217
2022-11-18T00:09:35.244Z,93217
2022-11-18T00:13:00.469Z,93215
2022-11-18T00:16:25.660Z,93213
2022-11-18T00:19:50.877Z,93205
2022-11-18T00:23:16.100Z,93204
2022-11-18T00:26:41.327Z,93201
2022-11-18T00:30:06.549Z,93208
2022-11-18T00:33:31.725Z,93202
2022-11-18T00:36:56.930Z,93201
2022-11-18T00:40:22.135Z,93202
2022-11-18T00:43:47.345Z,93200
2022-11-18T00:47:12.575Z,93197
2022-11-18T00:50:37.742Z,93198
2022-11-18T00:54:02.963Z,93200
2022-11-18T00:57:28.164Z,93194
2022-11-18T01:00:53.463Z,93183
2022-11-18T01:04:18.684Z,93180
2022-11-18T01:07:43.822Z,93179
2022-11-18T01:11:08.972Z,93185
2022-11-18T01:14:34.190Z,93178
2022-11-18T01:17:59.397Z,93183
2022-11-18T01:21:24.637Z,93180
2022-11-18T01:24:49.861Z,93179
2022-11-18T01:28:18.827Z,93178
2022-11-18T01:31:55.485Z,93184
2022-11-18T01:35:05.513Z,93172
2022-11-18T01:38:30.876Z,93173
2022-11-18T01:41:56.503Z,93164
2022-11-18T01:45:21.728Z,93158
2022-11-18T01:48:46.950Z,93160
2022-11-18T01:52:12.141Z,93170
2022-11-18T01:55:37.387Z,93174
2022-11-18T01:59:02.567Z,93178
2022-11-18T02:02:27.781Z,93174
2022-11-18T02:05:52.994Z,93173
2022-11-18T02:09:18.489Z,93171
2022-11-18T02:12:43.490Z,93171
2022-11-18T02:16:08.621Z,93170
2022-11-18T02:19:33.832Z,93172
2022-11-18T02:22:59.059Z,93185
2022-11-18T02:26:24.281Z,93185
2022-11-18T02:29:49.529Z,93187
2022-11-18T02:33:14.719Z,93187
2022-11-18T02:36:39.935Z,93183
2022-11-18T02:40:05.153Z,93191
2022-11-18T02:43:30.385Z,93189
2022-11-18T02:46:55.621Z,93187
2022-11-18T02:50:20.826Z,93190
2022-11-18T02:53:46.044Z,93192
2022-11-18T02:57:11.244Z,93193
2022-11-18T03:00:36.462Z,93192
2022-11-18T03:04:01.707Z,93191
2022-11-18T03:07:26.940Z,93190
2022-11-18T03:10:52.093Z,93187
2022-11-18T03:14:17.310Z,93191
2022-11-18T03:17:42.516Z,93188
2022-11-18T03:21:07.876Z,93184
2022-11-18T03:24:32.943Z,93185
2022-11-18T03:27:58.163Z,93185
2022-11-18T03:31:23.378Z,93190
2022-11-18T03:34:48.590Z,93193
2022-11-18T03:38:13.802Z,93200
2022-11-18T03:41:38.994Z,93203
2022-11-18T03:45:04.199Z,93208
2022-11-18T03:48:29.410Z,93209
2022-11-18T03:51:54.627Z,93212
2022-11-18T03:55:19.888Z,93218
2022-11-18T03:58:45.082Z,93227
2022-11-18T04:02:10.336Z,93223
2022-11-18T04:05:35.488Z,93231
2022-11-18T04:09:00.698Z,93232
2022-11-18T04:12:25.901Z,93235
2022-11-18T04:15:51.105Z,93236
2022-11-18T04:19:16.306Z,93240
2022-11-18T04:22:41.494Z,93246
2022-11-18T04:26:06.729Z,93241
2022-11-18T04:29:31.947Z,93244
2022-11-18T04:32:57.125Z,93249
2022-11-18T04:36:29.630Z,93248
2022-11-18T04:39:55.399Z,93252
2022-11-18T04:43:20.617Z,93261
2022-11-18T04:46:45.856Z,93259
2022-11-18T04:50:11.237Z,93260
2022-11-18T04:53:36.454Z,93267
2022-11-18T04:57:01.674Z,93266
2022-11-18T05:00:27.419Z,93266
2022-11-18T05:03:52.738Z,93267
2022-11-18T05:07:17.899Z,93267
2022-11-18T05:10:43.084Z,93261
2022-11-18T05:14:08.297Z,93260
2022-11-18T05:17:33.485Z,93263
2022-11-18T05:20:58.718Z,93264
2022-11-18T05:24:23.902Z,93268
2022-11-18T05:27:49.096Z,93263
2022-11-18T05:31:14.298Z,93267
2022-11-18T05:34:39.509Z,93270
2022-11-18T05:38:04.739Z,93278
2022-11-18T05:41:29.916Z,93280
2022-11-18T05:44:58.347Z,93278
2022-11-18T05:48:20.327Z,93280
2022-11-18T05:51:45.555Z,93288
2022-11-18T05:55:10.779Z,93290
2022-11-18T05:58:35.971Z,93292
2022-11-18T06:02:01.172Z,93289
2022-11-18T06:05:26.379Z,93294
2022-11-18T06:08:51.596Z,93301
2022-11-18T06:12:16.812Z,93301
2022-11-18T06:15:41.990Z,93301
2022-11-18T06:19:07.198Z,93298
2022-11-18T06:22:32.402Z,93307
2022-11-18T06:25:57.599Z,93319
2022-11-18T06:29:27.363Z,93313
2022-11-18T06:32:48.206Z,93304
2022-11-18T06:36:13.411Z,93310
2022-11-18T06:39:38.615Z,93313
2022-11-18T06:43:03.819Z,93301
2022-11-18T06:46:29.045Z,93310
2022-11-18T06:49:54.232Z,93321
2022-11-18T06:53:19.453Z,93318
2022-11-18T06:56:44.748Z,93318
2022-11-18T07:00:09.957Z,93324
2022-11-18T07:03:35.281Z,93339
2022-11-18T07:07:00.396Z,93342
2022-11-18T07:10:25.590Z,93338
2022-11-18T07:13:50.808Z,93337
2022-11-18T07:17:16.019Z,93332
2022-11-18T07:20:41.257Z,93334
2022-11-18T07:24:06.433Z,93343
2022-11-18T07:27:31.645Z,93343
2022-11-18T07:30:56.854Z,93348
2022-11-18T07:34:22.062Z,93343
2022-11-18T07:37:47.288Z,93345
2022-11-18T07:41:12.470Z,93348
2022-11-18T07:44:37.692Z,93356
2022-11-18T07:48:02.904Z,93354
2022-11-18T07:51:28.139Z,93358
2022-11-18T07:54:53.368Z,93360
2022-11-18T07:58:18.546Z,93365
2022-11-18T08:01:43.826Z,93363
2022-11-18T08:05:12.140Z,93371
2022-11-18T08:08:34.211Z,93374
2022-11-18T08:11:59.431Z,93378
2022-11-18T08:15:24.620Z,93383
2022-11-18T08:18:49.868Z,93382
2022-11-18T08:22:15.046Z,93393
2022-11-18T08:25:40.255Z,93389
2022-11-18T08:29:05.502Z,93392
2022-11-18T08:32:30.670Z,93392
2022-11-18T08:35:55.883Z,93394
2022-11-18T08:39:21.099Z,93396
2022-11-18T08:42:46.324Z,93399
2022-11-18T08:46:11.553Z,93411
2022-11-18T08:49:36.735Z,93412
2022-11-18T08:53:01.934Z,93412
2022-11-18T08:56:27.150Z,93411
2022-11-18T08:59:52.373Z,93417
2022-11-18T09:03:17.625Z,93418
2022-11-18T09:06:42.769Z,93415
2022-11-18T09:10:07.972Z,93412
2022-11-18T09:13:53.586Z,93415
2022-11-18T09:16:58.439Z,93414
2022-11-18T09:20:23.677Z,93417
2022-11-18T09:23:48.874Z,93419
2022-11-18T09:27:17.222Z,93423
2022-11-18T09:30:39.265Z,93425
2022-11-18T09:34:04.495Z,93424
2022-11-18T09:37:29.713Z,93434
2022-11-18T09:40:54.910Z,93442
2022-11-18T09:44:20.093Z,93444
2022-11-18T09:47:45.316Z,93453
2022-11-18T09:51:10.538Z,93453
2022-11-18T09:54:35.758Z,93454
2022-11-18T09:58:00.945Z,93452
2022-11-18T10:01:27.758Z,93458
2022-11-18T10:04:51.383Z,93463
2022-11-18T10:08:16.584Z,93463
2022-11-18T10:11:44.257Z,93465
2022-11-18T10:15:07.007Z,93475
2022-11-18T10:18:58.248Z,93479
2022-11-18T10:21:57.449Z,93486
2022-11-18T10:25:22.660Z,93481
2022-11-18T10:28:47.892Z,93482
2022-11-18T10:32:13.076Z,93488
2022-11-18T10:35:38.290Z,93498
2022-11-18T10:39:03.528Z,93496
2022-11-18T10:42:28.741Z,93500
2022-11-18T10:45:54.058Z,93509
2022-11-18T10:49:19.172Z,93516
2022-11-18T10:52:44.366Z,93513
2022-11-18T10:56:09.589Z,93520
2022-11-18T10:59:34.797Z,93516
2022-11-18T11:03:00.037Z,93524
2022-11-18T11:06:25.239Z,93514
2022-11-18T11:09:50.459Z,93520
2022-11-18T11:13:15.676Z,93524
2022-11-18T11:16:40.886Z,93524
2022-11-18T11:20:06.119Z,93525
2022-11-18T11:23:31.310Z,93522
2022-11-18T11:30:21.783Z,93524
2022-11-18T11:33:46.981Z,93524
2022-11-18T11:37:12.265Z,93527
2022-11-18T11:40:37.388Z,93535
2022-11-18T11:44:02.591Z,93532
2022-11-18T11:47:27.780Z,93528
2022-11-18T11:50:58.758Z,93536
2022-11-18T11:54:18.230Z,93544
2022-11-18T11:57:43.397Z,93550
2022-11-18T12:01:08.617Z,93542
2022-11-18T12:04:33.822Z,93554
2022-11-18T12:07:59.033Z,93553
2022-11-18T12:11:24.260Z,93548
2022-11-18T12:14:49.462Z,93551
2022-11-18T12:18:14.663Z,93557
2022-11-18T12:21:39.873Z,93552
2022-11-18T12:25:05.085Z,93557
2022-11-18T12:28:30.332Z,93561
2022-11-18T12:31:55.541Z,93561
2022-11-18T12:35:20.747Z,93570
2022-11-18T12:38:45.958Z,93576
2022-11-18T12:42:11.155Z,93580
2022-11-18T12:45:36.404Z,93581
2022-11-18T12:49:01.597Z,93582
2022-11-18T12:52:26.787Z,93584
2022-11-18T12:55:51.990Z,93591
2022-11-18T12:59:17.629Z,93594
2022-11-18T13:02:42.466Z,93599
2022-11-18T13:06:07.671Z,93599
2022-11-18T13:09:32.887Z,93607
2022-11-18T13:12:58.080Z,93605
2022-11-18T13:16:23.281Z,93610
2022-11-18T13:19:48.584Z,93615
2022-11-18T13:23:13.699Z,93626
2022-11-18T13:26:38.908Z,93625
2022-11-18T13:30:04.131Z,93621
2022-11-18T13:33:29.350Z,93628
2022-11-18T13:36:54.593Z,93639
2022-11-18T13:40:19.813Z,93635
2022-11-18T13:43:45.018Z,93635
2022-11-18T13:47:10.215Z,93642
2022-11-18T13:50:35.481Z,93640
2022-11-18T13:54:00.675Z,93642
2022-11-18T13:57:25.874Z,93642
2022-11-18T14:00:51.131Z,93647
2022-11-18T14:04:16.314Z,93648
2022-11-18T14:07:41.567Z,93651
2022-11-18T14:11:06.746Z,93646
2022-11-18T14:14:31.967Z,93651
2022-11-18T14:17:57.165Z,93663
2022-11-18T14:21:22.392Z,93663
2022-11-18T14:24:47.607Z,93667
2022-11-18T14:28:12.831Z,93671
2022-11-18T15:06:14.704Z,93695
2022-11-18T15:09:39.878Z,93710
2022-11-18T15:13:05.075Z,93705
2022-11-18T15:16:30.289Z,93708
2022-11-18T15:19:55.484Z,93713
2022-11-18T15:23:21.898Z,93717
2022-11-18T15:26:45.928Z,93723
2022-11-18T15:30:11.121Z,93720
2022-11-18T15:33:36.329Z,93728
2022-11-18T15:37:01.539Z,93731
2022-11-18T15:40:26.777Z,93733
2022-11-18T15:43:51.943Z,93733
2022-11-18T15:47:17.143Z,93735
2022-11-18T15:50:42.333Z,93746
2022-11-18T15:54:07.561Z,93744
2022-11-18T15:57:32.776Z,93749
2022-11-18T16:00:57.958Z,93756
2022-11-18T16:04:23.137Z,93762
2022-11-18T16:07:52.830Z,93773
2022-11-18T16:11:13.586Z,93768
2022-11-18T16:14:38.830Z,93772
2022-11-18T16:18:04.000Z,93777
2022-11-18T16:21:29.224Z,93781
2022-11-18T16:24:54.430Z,93790
2022-11-18T16:28:19.645Z,93794
2022-11-18T16:31:44.867Z,93804
2022-11-18T16:35:10.050Z,93803
2022-11-18T16:38:35.239Z,93812
2022-11-18T16:42:07.703Z,93816
2022-11-18T16:45:25.662Z,93818
2022-11-18T16:48:50.945Z,93826
2022-11-18T16:52:16.120Z,93831
2022-11-18T16:55:41.330Z,93835
2022-11-18T16:59:06.539Z,93832
2022-11-18T17:02:31.788Z,93835
2022-11-18T17:05:56.956Z,93832
2022-11-18T17:09:22.500Z,93835
2022-11-18T17:12:47.349Z,93843
2022-11-18T17:16:12.541Z,93846
2022-11-18T17:19:37.759Z,93848
2022-11-18T17:23:02.981Z,93851
2022-11-18T17:26:28.150Z,93849
2022-11-18T17:29:53.360Z,93851
2022-11-18T17:33:18.559Z,93850
2022-11-18T17:36:43.788Z,93859
2022-11-18T17:40:09.017Z,93855
2022-11-18T17:43:34.200Z,93868
2022-11-18T17:46:59.417Z,93880
2022-11-18T17:50:24.656Z,93894
2022-11-18T17:53:49.875Z,93893
2022-11-18T17:57:15.125Z,93900
2022-11-18T18:00:40.309Z,93909
2022-11-18T18:04:05.537Z,93910
2022-11-18T18:07:30.801Z,93914
2022-11-18T18:10:55.981Z,93911
2022-11-18T18:14:21.382Z,93912
2022-11-18T18:17:46.410Z,93920
2022-11-18T18:21:12.905Z,93930
2022-11-18T18:24:36.836Z,93940
2022-11-18T18:28:02.023Z,93941
2022-11-18T18:31:27.277Z,93937
2022-11-18T18:34:52.481Z,93938
2022-11-18T18:38:17.683Z,93939
2022-11-18T18:41:42.902Z,93949
2022-11-18T18:45:08.105Z,93941
2022-11-18T18:48:33.450Z,93944
2022-11-18T18:51:58.546Z,93950
2022-11-18T18:55:23.769Z,93947
2022-11-18T18:58:48.969Z,93957
2022-11-18T19:02:14.184Z,93952
2022-11-18T19:06:12.563Z,93955
2022-11-18T19:09:04.583Z,93960
2022-11-18T19:12:29.777Z,93960
2022-11-18T19:15:55.135Z,93959
2022-11-18T19:19:20.236Z,93961
2022-11-18T19:22:45.464Z,93960
2022-11-18T19:26:10.654Z,93963
2022-11-18T19:29:36.811Z,93966
2022-11-18T19:33:02.027Z,93969
2022-11-18T19:36:27.229Z,93970
2022-11-18T19:39:52.580Z,93967
2022-11-18T19:43:17.660Z,93992
2022-11-18T19:46:42.936Z,93993
2022-11-18T19:50:08.171Z,94000
2022-11-18T19:53:33.385Z,94014
2022-11-18T19:56:58.659Z,94022
2022-11-18T20:00:23.871Z,94017
2022-11-18T20:03:49.093Z,94013
2022-11-18T20:07:14.321Z,94012
2022-11-18T20:10:39.530Z,94021
2022-11-18T20:14:04.787Z,94031
2022-11-18T20:17:29.949Z,94041
2022-11-18T20:20:55.191Z,94031
2022-11-18T20:24:20.395Z,94028
2022-11-18T20:27:45.602Z,94036
2022-11-18T20:31:10.817Z,94035
2022-11-18T20:34:35.990Z,94038
2022-11-18T20:38:01.186Z,94037
2022-11-18T20:41:26.404Z,94036
2022-11-18T20:44:51.604Z,94035
2022-11-18T20:48:16.817Z,94038
2022-11-18T20:51:42.001Z,94037
2022-11-18T20:55:07.211Z,94038
2022-11-18T20:58:32.413Z,94051
2022-11-18T21:01:57.601Z,94052
2022-11-18T21:05:22.835Z,94050
2022-11-18T21:08:48.000Z,94045
2022-11-18T21:12:13.193Z,94055
2022-11-18T21:15:38.406Z,94058
2022-11-18T21:19:03.626Z,94058
2022-11-18T21:22:28.846Z,94066
2022-11-18T21:25:54.018Z,94065
2022-11-18T21:29:19.598Z,94070
2022-11-18T21:32:44.400Z,94078
2022-11-18T21:36:09.592Z,94080
2022-11-18T21:39:34.806Z,94080
2022-11-18T21:42:59.979Z,94085
2022-11-18T21:46:25.201Z,94089
2022-11-18T21:49:50.414Z,94092
2022-11-18T21:53:15.607Z,94099
2022-11-18T21:56:40.973Z,94107
2022-11-18T22:00:06.022Z,94114
2022-11-18T22:03:31.212Z,94110
2022-11-18T22:06:56.435Z,94109
2022-11-18T22:10:21.612Z,94111
2022-11-18T22:13:46.850Z,94109
2022-11-18T22:17:12.040Z,94111
2022-11-18T22:20:37.243Z,94108
2022-11-18T22:24:02.452Z,94111
2022-11-18T22:27:27.647Z,94109
2022-11-18T22:30:52.876Z,94107
2022-11-18T22:34:18.070Z,94107
2022-11-18T22:37:43.289Z,94111
2022-11-18T22:41:08.503Z,94113
2022-11-18T22:44:33.705Z,94125
2022-11-18T22:47:58.926Z,94127
2022-11-18T22:51:24.108Z,94124
2022-11-18T22:54:49.304Z,94121
2022-11-18T22:58:14.506Z,94118
2022-11-18T23:01:39.716Z,94117
2022-11-18T23:05:04.944Z,94118
2022-11-18T23:08:30.109Z,94124
2022-11-18T23:11:55.303Z,94124
2022-11-18T23:15:20.496Z,94131
2022-11-18T23:18:45.722Z,94139
2022-11-18T23:22:10.946Z,94152
2022-11-18T23:25:36.128Z,94161
2022-11-18T23:29:01.337Z,94161
2022-11-18T23:32:26.526Z,94162
2022-11-18T23:35:51.724Z,94169
2022-11-18T23:39:17.537Z,94167
2022-11-18T23:42:42.148Z,94152
2022-11-18T23:46:07.348Z,94162
2022-11-18T23:49:32.549Z,94161
2022-11-18T23:52:57.750Z,94168
2022-11-18T23:56:22.967Z,94166
2022-11-18T23:59:48.148Z,94173
